sensor_id;sensor_type;location;lat;lon;timestamp;P1;durP1;ratioP1;P2;durP2;ratioP2
14118;SDS011;7138;49.246;9.100;2023-02-10T00:00:01;53.10;;;25.05;;
14118;SDS011;7138;49.246;9.100;2023-02-10T00:02:28;49.58;;;23.05;;
14118;SDS011;7138;49.246;9.100;2023-02-10T00:04:55;48.33;;;22.88;;
14118;SDS011;7138;49.246;9.100;2023-02-10T00:07:20;48.42;;;23.33;;
14118;SDS011;7138;49.246;9.100;2023-02-10T00:09:47;50.92;;;23.48;;
14118;SDS011;7138;49.246;9.100;2023-02-10T00:12:14;45.80;;;21.65;;
14118;SDS011;7138;49.246;9.100;2023-02-10T00:14:41;45.95;;;20.60;;
14118;SDS011;7138;49.246;9.100;2023-02-10T00:17:07;46.80;;;20.70;;
14118;SDS011;7138;49.246;9.100;2023-02-10T00:19:33;40.30;;;18.85;;
14118;SDS011;7138;49.246;9.100;2023-02-10T00:22:00;39.67;;;19.13;;
14118;SDS011;7138;49.246;9.100;2023-02-10T00:24:27;46.35;;;21.77;;
14118;SDS011;7138;49.246;9.100;2023-02-10T00:26:53;45.10;;;21.40;;
14118;SDS011;7138;49.246;9.100;2023-02-10T00:29:19;51.03;;;22.00;;
14118;SDS011;7138;49.246;9.100;2023-02-10T00:31:46;44.17;;;20.90;;
14118;SDS011;7138;49.246;9.100;2023-02-10T00:34:14;47.15;;;21.48;;
14118;SDS011;7138;49.246;9.100;2023-02-10T00:36:42;45.33;;;21.10;;
14118;SDS011;7138;49.246;9.100;2023-02-10T00:39:11;42.72;;;20.50;;
14118;SDS011;7138;49.246;9.100;2023-02-10T00:41:38;48.70;;;21.38;;
14118;SDS011;7138;49.246;9.100;2023-02-10T00:44:05;47.03;;;22.40;;
14118;SDS011;7138;49.246;9.100;2023-02-10T00:46:31;56.97;;;23.65;;
14118;SDS011;7138;49.246;9.100;2023-02-10T00:48:58;45.53;;;23.17;;
14118;SDS011;7138;49.246;9.100;2023-02-10T00:51:24;50.05;;;23.55;;
14118;SDS011;7138;49.246;9.100;2023-02-10T00:53:50;52.70;;;24.42;;
14118;SDS011;7138;49.246;9.100;2023-02-10T00:56:17;47.38;;;21.95;;
14118;SDS011;7138;49.246;9.100;2023-02-10T00:58:45;43.65;;;21.38;;
14118;SDS011;7138;49.246;9.100;2023-02-10T01:01:11;44.03;;;21.88;;
14118;SDS011;7138;49.246;9.100;2023-02-10T01:03:37;43.00;;;20.98;;
14118;SDS011;7138;49.246;9.100;2023-02-10T01:06:05;46.42;;;22.70;;
14118;SDS011;7138;49.246;9.100;2023-02-10T01:08:31;48.13;;;24.33;;
14118;SDS011;7138;49.246;9.100;2023-02-10T01:10:59;51.30;;;22.77;;
14118;SDS011;7138;49.246;9.100;2023-02-10T01:13:26;52.67;;;22.58;;
14118;SDS011;7138;49.246;9.100;2023-02-10T01:15:52;54.08;;;23.35;;
14118;SDS011;7138;49.246;9.100;2023-02-10T01:18:18;52.95;;;23.48;;
14118;SDS011;7138;49.246;9.100;2023-02-10T01:20:44;56.35;;;25.33;;
14118;SDS011;7138;49.246;9.100;2023-02-10T01:23:12;50.15;;;23.25;;
14118;SDS011;7138;49.246;9.100;2023-02-10T01:25:38;54.15;;;24.30;;
14118;SDS011;7138;49.246;9.100;2023-02-10T01:28:04;54.55;;;23.23;;
14118;SDS011;7138;49.246;9.100;2023-02-10T01:30:31;51.13;;;23.48;;
14118;SDS011;7138;49.246;9.100;2023-02-10T01:32:58;54.30;;;24.25;;
14118;SDS011;7138;49.246;9.100;2023-02-10T01:35:23;45.88;;;21.13;;
14118;SDS011;7138;49.246;9.100;2023-02-10T01:37:49;51.97;;;22.27;;
14118;SDS011;7138;49.246;9.100;2023-02-10T01:40:17;49.67;;;23.33;;
14118;SDS011;7138;49.246;9.100;2023-02-10T01:42:43;52.90;;;23.13;;
14118;SDS011;7138;49.246;9.100;2023-02-10T01:45:16;54.25;;;23.67;;
14118;SDS011;7138;49.246;9.100;2023-02-10T01:47:47;47.80;;;22.15;;
14118;SDS011;7138;49.246;9.100;2023-02-10T01:50:18;50.85;;;22.88;;
14118;SDS011;7138;49.246;9.100;2023-02-10T01:52:49;51.75;;;22.67;;
14118;SDS011;7138;49.246;9.100;2023-02-10T01:55:18;46.15;;;23.27;;
14118;SDS011;7138;49.246;9.100;2023-02-10T01:57:48;53.67;;;24.13;;
14118;SDS011;7138;49.246;9.100;2023-02-10T02:00:19;50.85;;;23.52;;
14118;SDS011;7138;49.246;9.100;2023-02-10T02:02:46;48.85;;;23.83;;
14118;SDS011;7138;49.246;9.100;2023-02-10T02:05:21;53.22;;;24.88;;
14118;SDS011;7138;49.246;9.100;2023-02-10T02:07:55;52.40;;;24.50;;
14118;SDS011;7138;49.246;9.100;2023-02-10T02:10:30;45.78;;;23.92;;
14118;SDS011;7138;49.246;9.100;2023-02-10T02:13:30;49.20;;;23.52;;
14118;SDS011;7138;49.246;9.100;2023-02-10T02:16:22;49.05;;;22.90;;
14118;SDS011;7138;49.246;9.100;2023-02-10T02:19:08;48.75;;;22.98;;
14118;SDS011;7138;49.246;9.100;2023-02-10T02:22:20;55.78;;;22.40;;
14118;SDS011;7138;49.246;9.100;2023-02-10T02:25:18;50.40;;;23.58;;
14118;SDS011;7138;49.246;9.100;2023-02-10T02:28:07;54.25;;;24.20;;
14118;SDS011;7138;49.246;9.100;2023-02-10T02:30:55;62.45;;;25.27;;
14118;SDS011;7138;49.246;9.100;2023-02-10T02:33:45;48.40;;;23.80;;
14118;SDS011;7138;49.246;9.100;2023-02-10T02:36:17;50.15;;;23.20;;
14118;SDS011;7138;49.246;9.100;2023-02-10T02:38:48;50.53;;;23.70;;
14118;SDS011;7138;49.246;9.100;2023-02-10T02:41:21;46.83;;;23.55;;
14118;SDS011;7138;49.246;9.100;2023-02-10T02:43:48;52.20;;;24.02;;
14118;SDS011;7138;49.246;9.100;2023-02-10T02:46:25;53.20;;;24.73;;
14118;SDS011;7138;49.246;9.100;2023-02-10T02:49:13;55.40;;;25.40;;
14118;SDS011;7138;49.246;9.100;2023-02-10T02:51:53;53.70;;;24.38;;
14118;SDS011;7138;49.246;9.100;2023-02-10T02:54:30;49.38;;;22.88;;
14118;SDS011;7138;49.246;9.100;2023-02-10T02:57:11;47.67;;;23.10;;
14118;SDS011;7138;49.246;9.100;2023-02-10T02:59:50;49.45;;;22.33;;
14118;SDS011;7138;49.246;9.100;2023-02-10T03:02:24;48.83;;;23.17;;
14118;SDS011;7138;49.246;9.100;2023-02-10T03:04:55;46.13;;;22.17;;
14118;SDS011;7138;49.246;9.100;2023-02-10T03:07:21;47.72;;;23.02;;
14118;SDS011;7138;49.246;9.100;2023-02-10T03:09:47;50.63;;;23.40;;
14118;SDS011;7138;49.246;9.100;2023-02-10T03:12:13;47.72;;;22.42;;
14118;SDS011;7138;49.246;9.100;2023-02-10T03:14:39;48.22;;;22.38;;
14118;SDS011;7138;49.246;9.100;2023-02-10T03:17:05;58.45;;;24.98;;
14118;SDS011;7138;49.246;9.100;2023-02-10T03:19:31;49.53;;;23.95;;
14118;SDS011;7138;49.246;9.100;2023-02-10T03:21:58;50.58;;;21.98;;
14118;SDS011;7138;49.246;9.100;2023-02-10T03:24:24;49.97;;;23.42;;
14118;SDS011;7138;49.246;9.100;2023-02-10T03:26:50;46.47;;;22.13;;
14118;SDS011;7138;49.246;9.100;2023-02-10T03:29:15;54.70;;;23.85;;
14118;SDS011;7138;49.246;9.100;2023-02-10T03:31:41;49.83;;;24.13;;
14118;SDS011;7138;49.246;9.100;2023-02-10T03:34:07;53.55;;;23.52;;
14118;SDS011;7138;49.246;9.100;2023-02-10T03:36:34;49.40;;;22.90;;
14118;SDS011;7138;49.246;9.100;2023-02-10T03:39:01;51.38;;;23.40;;
14118;SDS011;7138;49.246;9.100;2023-02-10T03:41:29;52.42;;;23.63;;
14118;SDS011;7138;49.246;9.100;2023-02-10T03:43:55;45.83;;;23.00;;
14118;SDS011;7138;49.246;9.100;2023-02-10T03:46:21;57.45;;;23.83;;
14118;SDS011;7138;49.246;9.100;2023-02-10T03:48:47;50.63;;;23.10;;
14118;SDS011;7138;49.246;9.100;2023-02-10T03:51:13;47.33;;;22.40;;
14118;SDS011;7138;49.246;9.100;2023-02-10T03:53:39;51.85;;;23.00;;
14118;SDS011;7138;49.246;9.100;2023-02-10T03:56:06;47.50;;;23.00;;
14118;SDS011;7138;49.246;9.100;2023-02-10T03:58:32;49.00;;;22.50;;
14118;SDS011;7138;49.246;9.100;2023-02-10T04:00:59;46.00;;;21.60;;
14118;SDS011;7138;49.246;9.100;2023-02-10T04:03:25;53.55;;;23.17;;
14118;SDS011;7138;49.246;9.100;2023-02-10T04:05:51;47.78;;;22.15;;
14118;SDS011;7138;49.246;9.100;2023-02-10T04:08:16;54.28;;;22.92;;
14118;SDS011;7138;49.246;9.100;2023-02-10T04:10:42;53.28;;;23.40;;
14118;SDS011;7138;49.246;9.100;2023-02-10T04:13:10;48.40;;;22.88;;
14118;SDS011;7138;49.246;9.100;2023-02-10T04:15:36;60.05;;;24.88;;
14118;SDS011;7138;49.246;9.100;2023-02-10T04:18:02;52.95;;;22.88;;
14118;SDS011;7138;49.246;9.100;2023-02-10T04:20:28;48.05;;;23.23;;
14118;SDS011;7138;49.246;9.100;2023-02-10T04:22:54;50.33;;;21.58;;
14118;SDS011;7138;49.246;9.100;2023-02-10T04:25:19;53.22;;;23.33;;
14118;SDS011;7138;49.246;9.100;2023-02-10T04:27:45;48.65;;;22.13;;
14118;SDS011;7138;49.246;9.100;2023-02-10T04:30:12;48.35;;;22.23;;
14118;SDS011;7138;49.246;9.100;2023-02-10T04:32:38;48.17;;;22.02;;
14118;SDS011;7138;49.246;9.100;2023-02-10T04:35:04;48.72;;;22.42;;
14118;SDS011;7138;49.246;9.100;2023-02-10T04:37:31;50.70;;;22.73;;
14118;SDS011;7138;49.246;9.100;2023-02-10T04:39:57;52.47;;;23.10;;
14118;SDS011;7138;49.246;9.100;2023-02-10T04:42:22;51.50;;;22.33;;
14118;SDS011;7138;49.246;9.100;2023-02-10T04:44:54;49.47;;;21.38;;
14118;SDS011;7138;49.246;9.100;2023-02-10T04:47:22;51.28;;;22.95;;
14118;SDS011;7138;49.246;9.100;2023-02-10T04:49:49;49.28;;;21.83;;
14118;SDS011;7138;49.246;9.100;2023-02-10T04:52:14;48.83;;;22.52;;
14118;SDS011;7138;49.246;9.100;2023-02-10T04:54:40;46.38;;;21.52;;
14118;SDS011;7138;49.246;9.100;2023-02-10T04:57:06;51.15;;;22.13;;
14118;SDS011;7138;49.246;9.100;2023-02-10T04:59:32;53.58;;;22.92;;
14118;SDS011;7138;49.246;9.100;2023-02-10T05:01:58;49.85;;;22.90;;
14118;SDS011;7138;49.246;9.100;2023-02-10T05:04:25;53.33;;;23.67;;
14118;SDS011;7138;49.246;9.100;2023-02-10T05:06:51;50.80;;;22.95;;
14118;SDS011;7138;49.246;9.100;2023-02-10T05:09:16;49.55;;;23.00;;
14118;SDS011;7138;49.246;9.100;2023-02-10T05:11:42;50.30;;;22.90;;
14118;SDS011;7138;49.246;9.100;2023-02-10T05:14:08;55.92;;;23.63;;
14118;SDS011;7138;49.246;9.100;2023-02-10T05:16:34;48.55;;;21.75;;
14118;SDS011;7138;49.246;9.100;2023-02-10T05:19:01;49.15;;;22.85;;
14118;SDS011;7138;49.246;9.100;2023-02-10T05:21:28;55.42;;;23.98;;
14118;SDS011;7138;49.246;9.100;2023-02-10T05:23:56;57.75;;;23.30;;
14118;SDS011;7138;49.246;9.100;2023-02-10T05:26:23;50.17;;;22.73;;
14118;SDS011;7138;49.246;9.100;2023-02-10T05:28:49;48.70;;;22.60;;
14118;SDS011;7138;49.246;9.100;2023-02-10T05:31:14;53.42;;;22.15;;
14118;SDS011;7138;49.246;9.100;2023-02-10T05:33:40;52.85;;;22.17;;
14118;SDS011;7138;49.246;9.100;2023-02-10T05:36:06;48.65;;;21.83;;
14118;SDS011;7138;49.246;9.100;2023-02-10T05:38:34;51.70;;;22.25;;
14118;SDS011;7138;49.246;9.100;2023-02-10T05:41:00;50.75;;;23.38;;
14118;SDS011;7138;49.246;9.100;2023-02-10T05:43:26;51.90;;;20.52;;
14118;SDS011;7138;49.246;9.100;2023-02-10T05:45:52;55.25;;;22.67;;
14118;SDS011;7138;49.246;9.100;2023-02-10T05:48:18;52.47;;;23.63;;
14118;SDS011;7138;49.246;9.100;2023-02-10T05:50:49;48.38;;;21.88;;
14118;SDS011;7138;49.246;9.100;2023-02-10T05:53:15;49.08;;;22.23;;
14118;SDS011;7138;49.246;9.100;2023-02-10T05:55:42;52.20;;;22.48;;
14118;SDS011;7138;49.246;9.100;2023-02-10T05:58:10;46.13;;;21.63;;
14118;SDS011;7138;49.246;9.100;2023-02-10T06:00:36;55.72;;;23.17;;
14118;SDS011;7138;49.246;9.100;2023-02-10T06:03:02;49.55;;;22.20;;
14118;SDS011;7138;49.246;9.100;2023-02-10T06:05:27;51.13;;;22.58;;
14118;SDS011;7138;49.246;9.100;2023-02-10T06:07:53;47.95;;;21.95;;
14118;SDS011;7138;49.246;9.100;2023-02-10T06:10:20;49.50;;;22.65;;
14118;SDS011;7138;49.246;9.100;2023-02-10T06:12:48;45.70;;;20.95;;
14118;SDS011;7138;49.246;9.100;2023-02-10T06:15:14;45.35;;;20.55;;
14118;SDS011;7138;49.246;9.100;2023-02-10T06:17:39;50.30;;;23.30;;
14118;SDS011;7138;49.246;9.100;2023-02-10T06:20:05;52.80;;;22.88;;
14118;SDS011;7138;49.246;9.100;2023-02-10T06:22:32;45.67;;;21.98;;
14118;SDS011;7138;49.246;9.100;2023-02-10T06:24:58;54.28;;;23.25;;
14118;SDS011;7138;49.246;9.100;2023-02-10T06:27:24;51.85;;;21.25;;
14118;SDS011;7138;49.246;9.100;2023-02-10T06:29:52;48.20;;;21.30;;
14118;SDS011;7138;49.246;9.100;2023-02-10T06:32:17;48.20;;;23.05;;
14118;SDS011;7138;49.246;9.100;2023-02-10T06:34:43;48.70;;;21.30;;
14118;SDS011;7138;49.246;9.100;2023-02-10T06:37:10;51.42;;;22.23;;
14118;SDS011;7138;49.246;9.100;2023-02-10T06:39:36;53.63;;;21.77;;
14118;SDS011;7138;49.246;9.100;2023-02-10T06:42:02;50.05;;;22.58;;
14118;SDS011;7138;49.246;9.100;2023-02-10T06:44:28;52.58;;;22.40;;
14118;SDS011;7138;49.246;9.100;2023-02-10T06:46:55;46.97;;;21.58;;
14118;SDS011;7138;49.246;9.100;2023-02-10T06:49:21;51.42;;;22.90;;
14118;SDS011;7138;49.246;9.100;2023-02-10T06:51:47;57.97;;;23.27;;
14118;SDS011;7138;49.246;9.100;2023-02-10T06:54:13;49.70;;;23.00;;
14118;SDS011;7138;49.246;9.100;2023-02-10T06:56:38;47.00;;;23.88;;
14118;SDS011;7138;49.246;9.100;2023-02-10T06:59:04;50.90;;;22.80;;
14118;SDS011;7138;49.246;9.100;2023-02-10T07:01:30;59.00;;;27.15;;
14118;SDS011;7138;49.246;9.100;2023-02-10T07:03:58;53.60;;;24.38;;
14118;SDS011;7138;49.246;9.100;2023-02-10T07:06:23;56.38;;;24.00;;
14118;SDS011;7138;49.246;9.100;2023-02-10T07:08:49;59.30;;;23.92;;
14118;SDS011;7138;49.246;9.100;2023-02-10T07:11:16;54.22;;;23.10;;
14118;SDS011;7138;49.246;9.100;2023-02-10T07:13:42;43.75;;;22.10;;
14118;SDS011;7138;49.246;9.100;2023-02-10T07:16:07;55.70;;;23.35;;
14118;SDS011;7138;49.246;9.100;2023-02-10T07:18:36;59.20;;;25.75;;
14118;SDS011;7138;49.246;9.100;2023-02-10T07:21:04;52.65;;;24.08;;
14118;SDS011;7138;49.246;9.100;2023-02-10T07:23:30;60.33;;;24.50;;
14118;SDS011;7138;49.246;9.100;2023-02-10T07:25:56;58.20;;;26.02;;
14118;SDS011;7138;49.246;9.100;2023-02-10T07:28:22;55.20;;;25.17;;
14118;SDS011;7138;49.246;9.100;2023-02-10T07:30:47;56.72;;;25.75;;
14118;SDS011;7138;49.246;9.100;2023-02-10T07:33:13;52.28;;;25.00;;
14118;SDS011;7138;49.246;9.100;2023-02-10T07:35:39;56.90;;;25.83;;
14118;SDS011;7138;49.246;9.100;2023-02-10T07:38:06;62.92;;;28.80;;
14118;SDS011;7138;49.246;9.100;2023-02-10T07:40:32;57.33;;;26.27;;
14118;SDS011;7138;49.246;9.100;2023-02-10T07:42:59;52.58;;;22.77;;
14118;SDS011;7138;49.246;9.100;2023-02-10T07:45:25;50.75;;;23.33;;
14118;SDS011;7138;49.246;9.100;2023-02-10T07:47:56;50.28;;;24.10;;
14118;SDS011;7138;49.246;9.100;2023-02-10T07:50:22;54.78;;;24.25;;
14118;SDS011;7138;49.246;9.100;2023-02-10T07:52:48;53.45;;;24.77;;
14118;SDS011;7138;49.246;9.100;2023-02-10T07:55:15;49.75;;;23.77;;
14118;SDS011;7138;49.246;9.100;2023-02-10T07:57:42;46.15;;;23.52;;
14118;SDS011;7138;49.246;9.100;2023-02-10T08:00:08;46.10;;;22.73;;
14118;SDS011;7138;49.246;9.100;2023-02-10T08:02:37;48.28;;;23.42;;
14118;SDS011;7138;49.246;9.100;2023-02-10T08:05:03;49.95;;;22.95;;
14118;SDS011;7138;49.246;9.100;2023-02-10T08:07:29;50.38;;;24.15;;
14118;SDS011;7138;49.246;9.100;2023-02-10T08:09:55;49.80;;;24.08;;
14118;SDS011;7138;49.246;9.100;2023-02-10T08:12:22;49.88;;;25.95;;
14118;SDS011;7138;49.246;9.100;2023-02-10T08:14:48;54.33;;;25.98;;
14118;SDS011;7138;49.246;9.100;2023-02-10T08:17:14;56.70;;;27.30;;
14118;SDS011;7138;49.246;9.100;2023-02-10T08:19:39;54.80;;;26.88;;
14118;SDS011;7138;49.246;9.100;2023-02-10T08:22:05;53.60;;;27.30;;
14118;SDS011;7138;49.246;9.100;2023-02-10T08:24:31;66.53;;;29.83;;
14118;SDS011;7138;49.246;9.100;2023-02-10T08:26:57;59.38;;;30.23;;
14118;SDS011;7138;49.246;9.100;2023-02-10T08:29:24;52.85;;;26.63;;
14118;SDS011;7138;49.246;9.100;2023-02-10T08:31:51;58.90;;;28.70;;
14118;SDS011;7138;49.246;9.100;2023-02-10T08:34:18;49.97;;;25.83;;
14118;SDS011;7138;49.246;9.100;2023-02-10T08:36:45;55.80;;;27.45;;
14118;SDS011;7138;49.246;9.100;2023-02-10T08:39:11;55.67;;;27.95;;
14118;SDS011;7138;49.246;9.100;2023-02-10T08:41:38;52.47;;;27.08;;
14118;SDS011;7138;49.246;9.100;2023-02-10T08:44:05;53.22;;;25.90;;
14118;SDS011;7138;49.246;9.100;2023-02-10T08:46:34;48.78;;;25.05;;
14118;SDS011;7138;49.246;9.100;2023-02-10T08:49:00;51.58;;;26.17;;
14118;SDS011;7138;49.246;9.100;2023-02-10T08:51:26;48.80;;;24.55;;
14118;SDS011;7138;49.246;9.100;2023-02-10T08:53:53;46.55;;;23.55;;
14118;SDS011;7138;49.246;9.100;2023-02-10T08:56:21;46.10;;;23.15;;
14118;SDS011;7138;49.246;9.100;2023-02-10T08:58:47;51.30;;;24.10;;
14118;SDS011;7138;49.246;9.100;2023-02-10T09:01:14;47.58;;;25.60;;
14118;SDS011;7138;49.246;9.100;2023-02-10T09:03:44;50.90;;;25.92;;
14118;SDS011;7138;49.246;9.100;2023-02-10T09:06:14;46.53;;;23.58;;
14118;SDS011;7138;49.246;9.100;2023-02-10T09:08:42;53.20;;;24.40;;
14118;SDS011;7138;49.246;9.100;2023-02-10T09:11:10;50.25;;;24.92;;
14118;SDS011;7138;49.246;9.100;2023-02-10T09:13:36;49.92;;;24.95;;
14118;SDS011;7138;49.246;9.100;2023-02-10T09:16:02;47.80;;;24.45;;
14118;SDS011;7138;49.246;9.100;2023-02-10T09:18:28;50.13;;;25.10;;
14118;SDS011;7138;49.246;9.100;2023-02-10T09:20:57;49.67;;;24.67;;
14118;SDS011;7138;49.246;9.100;2023-02-10T09:23:24;52.72;;;25.58;;
14118;SDS011;7138;49.246;9.100;2023-02-10T09:25:52;44.13;;;23.33;;
14118;SDS011;7138;49.246;9.100;2023-02-10T09:28:18;48.30;;;24.67;;
14118;SDS011;7138;49.246;9.100;2023-02-10T09:30:47;47.97;;;24.55;;
14118;SDS011;7138;49.246;9.100;2023-02-10T09:33:13;51.42;;;25.65;;
14118;SDS011;7138;49.246;9.100;2023-02-10T09:35:39;49.35;;;24.95;;
14118;SDS011;7138;49.246;9.100;2023-02-10T09:38:07;49.25;;;23.80;;
14118;SDS011;7138;49.246;9.100;2023-02-10T09:40:34;43.45;;;23.05;;
14118;SDS011;7138;49.246;9.100;2023-02-10T09:43:17;46.50;;;24.45;;
14118;SDS011;7138;49.246;9.100;2023-02-10T09:46:15;44.25;;;23.50;;
14118;SDS011;7138;49.246;9.100;2023-02-10T09:48:57;45.40;;;23.65;;
14118;SDS011;7138;49.246;9.100;2023-02-10T09:51:41;48.35;;;24.52;;
14118;SDS011;7138;49.246;9.100;2023-02-10T09:54:22;47.33;;;23.88;;
14118;SDS011;7138;49.246;9.100;2023-02-10T09:56:48;49.15;;;24.05;;
14118;SDS011;7138;49.246;9.100;2023-02-10T09:59:15;44.90;;;23.60;;
14118;SDS011;7138;49.246;9.100;2023-02-10T10:01:47;47.35;;;24.23;;
14118;SDS011;7138;49.246;9.100;2023-02-10T10:04:20;44.53;;;23.85;;
14118;SDS011;7138;49.246;9.100;2023-02-10T10:06:48;42.97;;;23.35;;
14118;SDS011;7138;49.246;9.100;2023-02-10T10:09:23;47.13;;;24.33;;
14118;SDS011;7138;49.246;9.100;2023-02-10T10:12:07;44.53;;;24.30;;
14118;SDS011;7138;49.246;9.100;2023-02-10T10:14:36;44.30;;;24.33;;
14118;SDS011;7138;49.246;9.100;2023-02-10T10:17:07;45.28;;;24.65;;
14118;SDS011;7138;49.246;9.100;2023-02-10T10:19:58;49.83;;;23.30;;
14118;SDS011;7138;49.246;9.100;2023-02-10T10:23:00;44.60;;;24.20;;
14118;SDS011;7138;49.246;9.100;2023-02-10T10:25:55;41.55;;;23.35;;
14118;SDS011;7138;49.246;9.100;2023-02-10T10:28:33;42.97;;;24.52;;
14118;SDS011;7138;49.246;9.100;2023-02-10T10:31:14;40.80;;;22.27;;
14118;SDS011;7138;49.246;9.100;2023-02-10T10:33:43;45.00;;;23.63;;
14118;SDS011;7138;49.246;9.100;2023-02-10T10:36:17;40.90;;;23.58;;
14118;SDS011;7138;49.246;9.100;2023-02-10T10:38:46;43.60;;;23.42;;
14118;SDS011;7138;49.246;9.100;2023-02-10T10:41:18;42.70;;;22.83;;
14118;SDS011;7138;49.246;9.100;2023-02-10T10:43:51;46.42;;;24.65;;
14118;SDS011;7138;49.246;9.100;2023-02-10T10:46:21;42.83;;;23.58;;
14118;SDS011;7138;49.246;9.100;2023-02-10T10:48:53;44.85;;;24.48;;
14118;SDS011;7138;49.246;9.100;2023-02-10T10:51:20;38.38;;;21.95;;
14118;SDS011;7138;49.246;9.100;2023-02-10T10:53:49;39.10;;;22.42;;
14118;SDS011;7138;49.246;9.100;2023-02-10T10:56:21;47.50;;;22.20;;
14118;SDS011;7138;49.246;9.100;2023-02-10T10:58:58;41.45;;;22.75;;
14118;SDS011;7138;49.246;9.100;2023-02-10T11:01:31;36.97;;;22.95;;
14118;SDS011;7138;49.246;9.100;2023-02-10T11:04:05;43.03;;;23.13;;
14118;SDS011;7138;49.246;9.100;2023-02-10T11:06:36;39.10;;;23.27;;
14118;SDS011;7138;49.246;9.100;2023-02-10T11:09:05;37.53;;;20.65;;
14118;SDS011;7138;49.246;9.100;2023-02-10T11:11:45;40.85;;;23.10;;
14118;SDS011;7138;49.246;9.100;2023-02-10T11:14:13;38.42;;;21.80;;
14118;SDS011;7138;49.246;9.100;2023-02-10T11:16:43;38.40;;;21.27;;
14118;SDS011;7138;49.246;9.100;2023-02-10T11:19:17;39.25;;;21.10;;
14118;SDS011;7138;49.246;9.100;2023-02-10T11:21:47;34.50;;;19.95;;
14118;SDS011;7138;49.246;9.100;2023-02-10T11:24:15;39.38;;;22.48;;
14118;SDS011;7138;49.246;9.100;2023-02-10T11:26:54;41.03;;;21.73;;
14118;SDS011;7138;49.246;9.100;2023-02-10T11:29:26;35.45;;;20.70;;
14118;SDS011;7138;49.246;9.100;2023-02-10T11:31:55;28.37;;;16.43;;
14118;SDS011;7138;49.246;9.100;2023-02-10T11:34:24;33.88;;;19.60;;
14118;SDS011;7138;49.246;9.100;2023-02-10T11:36:53;30.98;;;19.45;;
14118;SDS011;7138;49.246;9.100;2023-02-10T11:39:23;35.13;;;20.38;;
14118;SDS011;7138;49.246;9.100;2023-02-10T11:41:56;34.92;;;20.40;;
14118;SDS011;7138;49.246;9.100;2023-02-10T11:44:31;36.95;;;19.77;;
14118;SDS011;7138;49.246;9.100;2023-02-10T11:46:58;33.47;;;19.88;;
14118;SDS011;7138;49.246;9.100;2023-02-10T11:49:26;35.47;;;20.38;;
14118;SDS011;7138;49.246;9.100;2023-02-10T11:54:25;36.15;;;20.45;;
14118;SDS011;7138;49.246;9.100;2023-02-10T11:56:54;36.22;;;20.42;;
14118;SDS011;7138;49.246;9.100;2023-02-10T12:00:03;34.20;;;19.73;;
14118;SDS011;7138;49.246;9.100;2023-02-10T12:02:46;35.28;;;20.90;;
14118;SDS011;7138;49.246;9.100;2023-02-10T12:05:54;38.60;;;21.30;;
14118;SDS011;7138;49.246;9.100;2023-02-10T12:08:32;35.67;;;20.67;;
14118;SDS011;7138;49.246;9.100;2023-02-10T12:11:09;34.88;;;20.55;;
14118;SDS011;7138;49.246;9.100;2023-02-10T12:13:48;36.55;;;21.00;;
14118;SDS011;7138;49.246;9.100;2023-02-10T12:16:27;36.45;;;20.35;;
14118;SDS011;7138;49.246;9.100;2023-02-10T12:19:07;36.10;;;20.88;;
14118;SDS011;7138;49.246;9.100;2023-02-10T12:21:58;40.03;;;21.95;;
14118;SDS011;7138;49.246;9.100;2023-02-10T12:24:45;37.65;;;21.15;;
14118;SDS011;7138;49.246;9.100;2023-02-10T12:27:30;35.13;;;20.90;;
14118;SDS011;7138;49.246;9.100;2023-02-10T12:30:17;37.13;;;20.25;;
14118;SDS011;7138;49.246;9.100;2023-02-10T12:32:58;33.97;;;21.38;;
14118;SDS011;7138;49.246;9.100;2023-02-10T12:35:40;34.05;;;19.63;;
14118;SDS011;7138;49.246;9.100;2023-02-10T12:38:23;32.33;;;19.67;;
14118;SDS011;7138;49.246;9.100;2023-02-10T12:41:05;38.00;;;21.30;;
14118;SDS011;7138;49.246;9.100;2023-02-10T12:43:55;48.28;;;28.92;;
14118;SDS011;7138;49.246;9.100;2023-02-10T12:46:41;33.90;;;20.38;;
14118;SDS011;7138;49.246;9.100;2023-02-10T12:49:29;32.80;;;19.15;;
14118;SDS011;7138;49.246;9.100;2023-02-10T12:52:10;31.10;;;18.92;;
14118;SDS011;7138;49.246;9.100;2023-02-10T12:54:46;35.78;;;20.75;;
14118;SDS011;7138;49.246;9.100;2023-02-10T12:57:19;31.65;;;19.80;;
14118;SDS011;7138;49.246;9.100;2023-02-10T12:59:53;34.80;;;20.15;;
14118;SDS011;7138;49.246;9.100;2023-02-10T13:02:29;36.17;;;20.45;;
14118;SDS011;7138;49.246;9.100;2023-02-10T13:05:07;33.25;;;19.83;;
14118;SDS011;7138;49.246;9.100;2023-02-10T13:07:39;31.80;;;19.02;;
14118;SDS011;7138;49.246;9.100;2023-02-10T13:10:16;33.53;;;19.45;;
14118;SDS011;7138;49.246;9.100;2023-02-10T13:12:52;30.55;;;19.52;;
14118;SDS011;7138;49.246;9.100;2023-02-10T13:15:24;35.38;;;20.42;;
14118;SDS011;7138;49.246;9.100;2023-02-10T13:17:56;32.45;;;20.05;;
14118;SDS011;7138;49.246;9.100;2023-02-10T13:20:28;31.10;;;20.13;;
14118;SDS011;7138;49.246;9.100;2023-02-10T13:23:15;34.03;;;20.33;;
14118;SDS011;7138;49.246;9.100;2023-02-10T13:25:53;32.05;;;18.70;;
14118;SDS011;7138;49.246;9.100;2023-02-10T13:28:42;30.88;;;19.00;;
14118;SDS011;7138;49.246;9.100;2023-02-10T13:31:27;35.33;;;20.95;;
14118;SDS011;7138;49.246;9.100;2023-02-10T13:34:30;32.80;;;19.85;;
14118;SDS011;7138;49.246;9.100;2023-02-10T13:37:03;33.20;;;19.83;;
14118;SDS011;7138;49.246;9.100;2023-02-10T13:39:32;32.28;;;19.73;;
14118;SDS011;7138;49.246;9.100;2023-02-10T13:42:05;31.88;;;18.77;;
14118;SDS011;7138;49.246;9.100;2023-02-10T13:44:41;32.30;;;19.45;;
14118;SDS011;7138;49.246;9.100;2023-02-10T13:47:12;33.53;;;19.17;;
14118;SDS011;7138;49.246;9.100;2023-02-10T13:49:52;32.28;;;19.00;;
14118;SDS011;7138;49.246;9.100;2023-02-10T13:52:23;32.05;;;18.88;;
14118;SDS011;7138;49.246;9.100;2023-02-10T13:54:52;27.52;;;18.05;;
14118;SDS011;7138;49.246;9.100;2023-02-10T13:57:25;29.77;;;18.42;;
14118;SDS011;7138;49.246;9.100;2023-02-10T14:00:05;32.00;;;19.33;;
14118;SDS011;7138;49.246;9.100;2023-02-10T14:02:40;31.25;;;19.02;;
14118;SDS011;7138;49.246;9.100;2023-02-10T14:05:21;31.00;;;18.67;;
14118;SDS011;7138;49.246;9.100;2023-02-10T14:07:51;34.17;;;19.50;;
14118;SDS011;7138;49.246;9.100;2023-02-10T14:10:26;31.73;;;19.92;;
14118;SDS011;7138;49.246;9.100;2023-02-10T14:12:58;32.75;;;18.90;;
14118;SDS011;7138;49.246;9.100;2023-02-10T14:15:29;29.75;;;18.90;;
14118;SDS011;7138;49.246;9.100;2023-02-10T14:17:59;29.70;;;17.50;;
14118;SDS011;7138;49.246;9.100;2023-02-10T14:20:31;31.67;;;18.13;;
14118;SDS011;7138;49.246;9.100;2023-02-10T14:23:01;31.00;;;19.35;;
14118;SDS011;7138;49.246;9.100;2023-02-10T14:28:06;32.47;;;18.33;;
14118;SDS011;7138;49.246;9.100;2023-02-10T14:30:45;30.98;;;18.52;;
14118;SDS011;7138;49.246;9.100;2023-02-10T14:33:20;29.45;;;18.33;;
14118;SDS011;7138;49.246;9.100;2023-02-10T14:35:52;33.25;;;19.45;;
14118;SDS011;7138;49.246;9.100;2023-02-10T14:38:22;28.83;;;18.65;;
14118;SDS011;7138;49.246;9.100;2023-02-10T14:40:51;32.15;;;18.52;;
14118;SDS011;7138;49.246;9.100;2023-02-10T14:43:21;32.15;;;18.58;;
14118;SDS011;7138;49.246;9.100;2023-02-10T14:45:50;31.45;;;19.02;;
14118;SDS011;7138;49.246;9.100;2023-02-10T14:48:18;27.55;;;17.88;;
14118;SDS011;7138;49.246;9.100;2023-02-10T14:53:34;29.92;;;17.63;;
14118;SDS011;7138;49.246;9.100;2023-02-10T14:56:02;30.65;;;18.15;;
14118;SDS011;7138;49.246;9.100;2023-02-10T14:58:30;28.75;;;17.98;;
14118;SDS011;7138;49.246;9.100;2023-02-10T15:00:57;27.40;;;16.80;;